Time;durP1;ratioP1;P1;durP2;ratioP2;P2;SDS_P1;SDS_P2;PMS_P1;PMS_P2;Temp;Humidity;BMP_temperature;BMP_pressure;BME280_temperature;BME280_humidity;BME280_pressure;Samples;Min_cycle;Max_cycle;Signal;HPM_P1;HPM_P2
2023/04/17 00:01:41;;;;;;;36.23;15.50;;;8.40;99.90;;;;;;5113017;28;20310;-82
2023/04/17 00:04:11;;;;;;;35.90;15.32;;;8.40;99.90;;;;;;5096689;28;20055;-83
2023/04/17 00:06:44;;;;;;;34.60;15.68;;;8.40;99.90;;;;;;5095090;28;20035;-83
2023/04/17 00:09:13;;;;;;;34.03;15.93;;;8.40;99.90;;;;;;5116648;28;20039;-82
2023/04/17 00:11:39;;;;;;;35.08;15.85;;;8.40;99.90;;;;;;5114787;28;20055;-82
2023/04/17 00:14:04;;;;;;;36.58;15.98;;;8.40;99.90;;;;;;5097390;28;20085;-82
2023/04/17 00:16:30;;;;;;;34.55;14.85;;;8.40;99.90;;;;;;5096892;28;20057;-83
2023/04/17 00:18:56;;;;;;;35.10;15.77;;;8.40;99.90;;;;;;5097737;28;20044;-82
2023/04/17 00:21:22;;;;;;;36.00;16.42;;;8.40;99.90;;;;;;5113820;28;20440;-82
2023/04/17 00:23:48;;;;;;;32.05;15.65;;;8.40;99.90;;;;;;5114433;28;20058;-82
2023/04/17 00:26:14;;;;;;;35.50;16.13;;;8.40;99.90;;;;;;5115235;28;20496;-83
2023/04/17 00:28:40;;;;;;;35.67;15.75;;;8.40;99.90;;;;;;5114441;28;20048;-82
2023/04/17 00:31:09;;;;;;;31.85;15.25;;;8.40;99.90;;;;;;5098020;28;20043;-82
2023/04/17 00:33:35;;;;;;;34.35;15.65;;;8.40;99.90;;;;;;5095699;28;20036;-83
2023/04/17 00:36:00;;;;;;;35.15;16.35;;;8.30;99.90;;;;;;5078421;28;20062;-83
2023/04/17 00:38:26;;;;;;;34.30;15.27;;;8.40;99.90;;;;;;5078270;28;20085;-83
2023/04/17 00:40:51;;;;;;;33.87;15.43;;;8.30;99.90;;;;;;5083022;28;20296;-82
2023/04/17 00:43:17;;;;;;;36.85;16.58;;;8.30;99.90;;;;;;5082327;28;20122;-82
2023/04/17 00:45:46;;;;;;;30.65;15.13;;;8.30;99.90;;;;;;5097227;28;20039;-83
2023/04/17 00:48:14;;;;;;;32.53;15.35;;;8.30;99.90;;;;;;5097226;28;20035;-82
2023/04/17 00:50:41;;;;;;;33.22;15.00;;;8.30;99.90;;;;;;5113607;28;20487;-82
2023/04/17 00:53:07;;;;;;;32.97;16.10;;;8.30;99.90;;;;;;5096842;28;20076;-82
2023/04/17 00:55:36;;;;;;;32.85;15.40;;;8.20;99.90;;;;;;5116592;28;20131;-83
2023/04/17 00:58:02;;;;;;;35.70;15.85;;;8.20;99.90;;;;;;5095907;28;20062;-82
2023/04/17 01:00:28;;;;;;;34.97;15.20;;;8.20;99.90;;;;;;5112279;28;20067;-83
2023/04/17 01:02:56;;;;;;;36.33;16.17;;;8.20;99.90;;;;;;5113489;28;20093;-82
2023/04/17 01:05:23;;;;;;;36.95;15.95;;;8.20;99.90;;;;;;5114163;28;20301;-83
2023/04/17 01:07:48;;;;;;;36.38;15.68;;;8.20;99.90;;;;;;5098736;28;20074;-82
2023/04/17 01:10:14;;;;;;;37.25;15.85;;;8.20;99.90;;;;;;5098797;28;20040;-83
2023/04/17 01:12:42;;;;;;;36.28;15.05;;;8.20;99.90;;;;;;5114951;28;20031;-82
2023/04/17 01:15:08;;;;;;;34.70;16.08;;;8.20;99.90;;;;;;5094180;28;20047;-83
2023/04/17 01:17:34;;;;;;;37.58;16.23;;;8.20;99.90;;;;;;5097067;28;20031;-83
2023/04/17 01:20:00;;;;;;;34.55;15.57;;;8.20;99.90;;;;;;5097778;28;20046;-82
2023/04/17 01:22:25;;;;;;;38.28;16.20;;;8.10;99.90;;;;;;5113358;28;20079;-82
2023/04/17 01:24:51;;;;;;;38.33;16.17;;;8.10;99.90;;;;;;5080521;28;20089;-82
2023/04/17 01:27:17;;;;;;;38.03;16.58;;;8.00;99.90;;;;;;5063942;28;20091;-82
2023/04/17 01:29:43;;;;;;;43.38;17.10;;;8.10;99.90;;;;;;5078306;28;20081;-82
2023/04/17 01:32:09;;;;;;;42.47;16.55;;;8.10;99.90;;;;;;5112013;28;20038;-82
2023/04/17 01:34:34;;;;;;;38.22;17.00;;;8.10;99.90;;;;;;5111969;28;20059;-82
2023/04/17 01:37:00;;;;;;;41.45;16.70;;;8.10;99.90;;;;;;5078328;28;20143;-82
2023/04/17 01:39:26;;;;;;;38.47;16.17;;;8.10;99.90;;;;;;5096352;28;20076;-82
2023/04/17 01:41:53;;;;;;;43.25;16.63;;;8.10;99.90;;;;;;5114540;28;20605;-82
2023/04/17 01:44:19;;;;;;;43.17;17.17;;;8.10;99.90;;;;;;5096957;28;20035;-82
2023/04/17 01:46:44;;;;;;;37.92;15.85;;;8.10;99.90;;;;;;5116412;28;20200;-82
2023/04/17 01:49:11;;;;;;;39.65;16.05;;;8.10;99.90;;;;;;5099377;28;20519;-82
2023/04/17 01:51:37;;;;;;;45.05;16.95;;;8.10;99.90;;;;;;5116589;28;20047;-82
2023/04/17 01:54:02;;;;;;;42.00;17.35;;;8.10;99.90;;;;;;5101481;28;20039;-82
2023/04/17 01:56:28;;;;;;;39.90;16.83;;;8.10;99.90;;;;;;5118175;28;20096;-82
2023/04/17 01:58:54;;;;;;;46.92;16.88;;;8.10;99.90;;;;;;5082795;28;20367;-82
2023/04/17 02:01:20;;;;;;;44.83;16.63;;;8.00;99.90;;;;;;5065408;28;20531;-82
2023/04/17 02:03:45;;;;;;;43.03;17.02;;;8.00;99.90;;;;;;5100086;28;20044;-82
2023/04/17 02:06:11;;;;;;;44.55;16.45;;;8.00;99.90;;;;;;5117888;28;20071;-82
2023/04/17 02:08:37;;;;;;;38.15;16.45;;;8.00;99.90;;;;;;5101657;28;20128;-81
2023/04/17 02:11:03;;;;;;;41.72;16.70;;;8.00;99.90;;;;;;5099155;28;20039;-82
2023/04/17 02:13:28;;;;;;;36.28;16.08;;;8.00;99.90;;;;;;5116748;28;20032;-82
2023/04/17 02:15:54;;;;;;;42.63;16.70;;;8.00;99.90;;;;;;5100667;28;20491;-82
2023/04/17 02:18:20;;;;;;;38.63;16.00;;;8.00;99.90;;;;;;5100606;28;20277;-82
2023/04/17 02:20:46;;;;;;;36.83;14.98;;;8.00;99.90;;;;;;5099765;28;20454;-82
2023/04/17 02:23:11;;;;;;;35.38;14.88;;;7.90;99.90;;;;;;5098936;28;20035;-82
2023/04/17 02:25:37;;;;;;;37.40;16.15;;;7.90;99.90;;;;;;5099975;28;20039;-82
2023/04/17 02:28:03;;;;;;;37.33;15.40;;;7.90;99.90;;;;;;5117422;28;20039;-82
2023/04/17 02:30:29;;;;;;;33.65;15.07;;;7.90;99.90;;;;;;5116569;28;20479;-82
2023/04/17 02:32:56;;;;;;;33.50;14.88;;;7.90;99.90;;;;;;5113023;28;20042;-82
2023/04/17 02:35:22;;;;;;;;;;;7.90;99.90;;;;;;5116104;28;20141;-82
2023/04/17 02:37:48;;;;;;;34.97;15.13;;;8.00;99.90;;;;;;5116146;28;19915;-82
2023/04/17 02:40:14;;;;;;;42.03;16.38;;;8.00;99.90;;;;;;5102080;28;20406;-82
2023/04/17 02:42:40;;;;;;;38.03;14.77;;;8.00;99.90;;;;;;5118839;28;20032;-82
2023/04/17 02:45:07;;;;;;;44.38;15.55;;;8.00;99.90;;;;;;5099620;28;20100;-82
2023/04/17 02:47:32;;;;;;;39.22;14.48;;;7.90;99.90;;;;;;5115908;28;20035;-82
2023/04/17 02:49:59;;;;;;;38.13;15.10;;;7.90;99.90;;;;;;5080236;28;20079;-83
2023/04/17 02:52:29;;;;;;;31.10;13.65;;;7.90;99.90;;;;;;5114254;28;20297;-82
2023/04/17 02:54:58;;;;;;;33.08;13.80;;;7.90;99.90;;;;;;5114824;28;20086;-82
2023/04/17 02:57:24;;;;;;;29.63;13.20;;;7.90;99.90;;;;;;5115170;28;20471;-82
2023/04/17 02:59:53;;;;;;;29.00;13.07;;;7.80;99.90;;;;;;5114982;28;20034;-82
2023/04/17 03:02:21;;;;;;;32.80;13.20;;;7.90;99.90;;;;;;5097542;28;20041;-82
2023/04/17 03:04:49;;;;;;;44.22;13.13;;;7.80;99.90;;;;;;5096858;28;20059;-82
2023/04/17 03:07:19;;;;;;;33.88;13.55;;;7.80;99.90;;;;;;5095952;28;20028;-82
2023/04/17 03:09:49;;;;;;;37.35;12.93;;;7.80;99.90;;;;;;5098240;28;20084;-82
2023/04/17 03:12:16;;;;;;;34.35;13.57;;;7.80;99.90;;;;;;5113258;28;20040;-82
2023/04/17 03:14:42;;;;;;;35.85;13.85;;;7.80;99.90;;;;;;5112944;28;20074;-82
2023/04/17 03:17:09;;;;;;;35.90;14.13;;;7.80;99.90;;;;;;5113105;28;20040;-82
2023/04/17 03:19:35;;;;;;;33.70;13.82;;;7.90;99.90;;;;;;5081156;28;20039;-82
2023/04/17 03:22:01;;;;;;;31.58;13.40;;;7.90;99.90;;;;;;5097120;28;20172;-82
2023/04/17 03:24:27;;;;;;;33.67;13.60;;;7.80;99.90;;;;;;5114528;28;20044;-81
2023/04/17 03:26:52;;;;;;;37.13;14.48;;;7.80;99.90;;;;;;5113600;28;20115;-82
2023/04/17 03:29:18;;;;;;;31.83;12.60;;;7.80;99.90;;;;;;5079192;28;20031;-82
2023/04/17 03:31:44;;;;;;;29.90;13.13;;;7.80;99.90;;;;;;5096098;28;20147;-82
2023/04/17 03:34:10;;;;;;;32.55;14.50;;;7.70;99.90;;;;;;5096922;28;20035;-82
2023/04/17 03:36:35;;;;;;;48.17;15.82;;;7.80;99.90;;;;;;5112573;28;20388;-82
2023/04/17 03:39:01;;;;;;;35.30;13.90;;;7.70;99.90;;;;;;5111283;28;20093;-82
2023/04/17 03:41:27;;;;;;;37.30;14.13;;;7.70;99.90;;;;;;5096913;28;20039;-82
2023/04/17 03:43:52;;;;;;;39.60;15.20;;;7.70;99.90;;;;;;5095557;28;20038;-82
2023/04/17 03:46:18;;;;;;;35.80;13.70;;;7.70;99.90;;;;;;5112293;28;20122;-82
2023/04/17 03:48:44;;;;;;;53.50;15.60;;;7.70;99.90;;;;;;5095169;28;20103;-82
2023/04/17 03:51:10;;;;;;;46.08;15.95;;;7.70;99.90;;;;;;5112484;28;20532;-82
2023/04/17 03:53:35;;;;;;;49.60;15.20;;;7.70;99.90;;;;;;5095804;28;20082;-82
2023/04/17 03:56:01;;;;;;;43.75;15.65;;;7.70;99.90;;;;;;5097268;28;21017;-82
2023/04/17 03:58:27;;;;;;;50.90;15.90;;;7.70;99.90;;;;;;5113180;28;20126;-82
2023/04/17 04:00:57;;;;;;;68.00;19.63;;;7.70;99.90;;;;;;5094906;28;20047;-82
2023/04/17 04:03:23;;;;;;;68.35;17.63;;;7.70;99.90;;;;;;5095390;28;20519;-82
2023/04/17 04:05:49;;;;;;;62.47;16.80;;;7.70;99.90;;;;;;5093437;28;20040;-82
2023/04/17 04:08:15;;;;;;;64.85;17.30;;;7.70;99.90;;;;;;5112166;28;20522;-82
2023/04/17 04:10:43;;;;;;;60.92;16.13;;;7.70;99.90;;;;;;5058168;28;20038;-82
2023/04/17 04:13:09;;;;;;;51.65;16.55;;;7.70;99.90;;;;;;5094291;28;20142;-82
2023/04/17 04:15:35;;;;;;;51.20;16.77;;;7.70;99.90;;;;;;5093862;28;20079;-82
2023/04/17 04:18:01;;;;;;;51.30;17.20;;;7.70;99.90;;;;;;5109426;28;20525;-83
2023/04/17 04:20:27;;;;;;;51.22;16.98;;;7.70;99.90;;;;;;5109761;28;20055;-83
2023/04/17 04:22:56;;;;;;;51.10;15.82;;;7.60;99.90;;;;;;5075388;28;20032;-84
2023/04/17 04:25:22;;;;;;;45.83;14.88;;;7.70;99.90;;;;;;5090205;28;20510;-85
2023/04/17 04:27:51;;;;;;;;;;;7.70;99.90;;;;;;5109889;28;20032;-85
2023/04/17 04:30:19;;;;;;;46.00;15.23;;;7.60;99.90;;;;;;5110475;28;20362;-84
2023/04/17 04:32:45;;;;;;;43.92;15.68;;;7.70;99.90;;;;;;5092322;28;20038;-85
2023/04/17 04:35:14;;;;;;;39.28;14.45;;;7.70;99.90;;;;;;5109554;28;20546;-84
2023/04/17 04:37:41;;;;;;;79.10;16.75;;;7.60;99.90;;;;;;5092877;28;20051;-84
2023/04/17 04:40:11;;;;;;;38.33;15.73;;;7.60;99.90;;;;;;5108754;28;20115;-85
2023/04/17 04:42:48;;;;;;;56.42;15.95;;;7.60;99.90;;;;;;5109690;28;20048;-84
2023/04/17 04:45:14;;;;;;;;;;;7.70;99.90;;;;;;5109900;28;20043;-85
2023/04/17 04:47:40;;;;;;;41.63;15.05;;;7.70;99.90;;;;;;5093412;28;19916;-85
2023/04/17 04:50:06;;;;;;;42.28;16.55;;;7.70;99.90;;;;;;5110144;28;20838;-83
2023/04/17 04:52:32;;;;;;;42.38;17.05;;;7.70;99.90;;;;;;5092592;28;20411;-85
2023/04/17 04:54:58;;;;;;;34.15;15.05;;;7.10;99.90;;;;;;5109643;28;20050;-86
2023/04/17 04:57:23;;;;;;;49.50;15.33;;;7.70;99.90;;;;;;5090948;28;20063;-86
2023/04/17 04:59:49;;;;;;;36.33;14.67;;;7.70;99.90;;;;;;5090682;28;20300;-85
2023/04/17 05:02:15;;;;;;;40.63;14.47;;;7.70;99.90;;;;;;5092882;28;20290;-85
2023/04/17 05:04:41;;;;;;;39.58;14.98;;;7.60;99.90;;;;;;5092923;28;20039;-85
2023/04/17 05:07:06;;;;;;;38.05;14.98;;;7.60;99.90;;;;;;5109785;28;20403;-85
2023/04/17 05:09:32;;;;;;;39.90;16.20;;;7.60;99.90;;;;;;5092728;28;20036;-85
2023/04/17 05:11:58;;;;;;;47.65;15.65;;;7.70;99.90;;;;;;5108732;28;20072;-85
2023/04/17 05:14:24;;;;;;;40.83;15.60;;;7.60;99.90;;;;;;5109075;28;20509;-85
2023/04/17 05:16:50;;;;;;;38.33;13.70;;;7.70;99.90;;;;;;5109374;28;20504;-85
2023/04/17 05:19:16;;;;;;;35.75;13.80;;;7.60;99.90;;;;;;5094153;28;20091;-86
2023/04/17 05:21:42;;;;;;;36.47;14.37;;;7.70;99.90;;;;;;5096856;28;20074;-85
2023/04/17 05:24:07;;;;;;;35.28;13.95;;;7.70;99.90;;;;;;5096534;28;20293;-85
2023/04/17 05:26:33;;;;;;;30.70;13.13;;;7.70;99.90;;;;;;5113371;28;20479;-87
2023/04/17 05:28:59;;;;;;;41.53;13.95;;;7.70;99.90;;;;;;5096544;28;20035;-86
2023/04/17 05:31:25;;;;;;;38.75;14.10;;;7.80;99.90;;;;;;5096679;28;20066;-85
2023/04/17 05:33:51;;;;;;;34.88;14.20;;;7.80;99.90;;;;;;5113111;28;20032;-85
2023/04/17 05:36:17;;;;;;;34.30;13.57;;;7.70;99.90;;;;;;5096660;28;20123;-85
2023/04/17 05:38:43;;;;;;;38.00;14.38;;;7.80;99.90;;;;;;5113466;28;20032;-85
2023/04/17 05:41:09;;;;;;;40.13;14.63;;;7.80;99.90;;;;;;5096073;28;20046;-86
2023/04/17 05:43:34;;;;;;;36.92;13.98;;;7.80;99.90;;;;;;5113194;28;20062;-86
2023/04/17 05:46:01;;;;;;;37.75;15.07;;;7.80;99.90;;;;;;5079015;28;20040;-86
2023/04/17 05:48:26;;;;;;;34.80;13.77;;;7.80;99.90;;;;;;5113202;28;20384;-86
2023/04/17 05:50:52;;;;;;;32.05;14.13;;;7.80;99.90;;;;;;5095765;28;20052;-86
2023/04/17 05:53:18;;;;;;;36.70;15.55;;;7.80;99.90;;;;;;5113371;28;20071;-86
2023/04/17 05:55:44;;;;;;;39.30;15.85;;;7.90;99.90;;;;;;5112935;28;20038;-85
2023/04/17 05:58:09;;;;;;;37.90;14.90;;;7.90;99.90;;;;;;5096040;28;20036;-85
2023/04/17 06:00:35;;;;;;;37.75;15.43;;;7.90;99.90;;;;;;5096045;28;20052;-85
2023/04/17 06:03:01;;;;;;;41.20;14.93;;;7.90;99.90;;;;;;5078503;28;20032;-85
2023/04/17 06:05:27;;;;;;;35.65;14.40;;;8.00;99.90;;;;;;5112801;28;20126;-85
2023/04/17 06:07:53;;;;;;;35.83;15.02;;;8.10;99.90;;;;;;5095597;28;20058;-85
2023/04/17 06:10:19;;;;;;;40.72;14.98;;;8.10;99.90;;;;;;5113590;28;20091;-87
2023/04/17 06:12:44;;;;;;;36.65;15.35;;;8.10;99.90;;;;;;5113099;28;20092;-86
2023/04/17 06:15:10;;;;;;;36.47;13.93;;;8.20;99.90;;;;;;5112796;28;20150;-86
2023/04/17 06:17:37;;;;;;;39.08;16.05;;;8.30;99.90;;;;;;5112867;28;20039;-86
2023/04/17 06:20:09;;;;;;;38.55;15.55;;;8.30;99.90;;;;;;5112545;28;20042;-85
2023/04/17 06:22:35;;;;;;;34.45;14.52;;;8.30;99.90;;;;;;5095889;28;20043;-85
2023/04/17 06:25:02;;;;;;;34.13;15.73;;;8.40;99.90;;;;;;5112669;28;20054;-86
2023/04/17 06:27:28;;;;;;;35.55;14.65;;;8.40;99.90;;;;;;5112924;28;20039;-86
2023/04/17 06:29:53;;;;;;;35.97;13.98;;;8.40;99.90;;;;;;5095834;28;20027;-86
2023/04/17 06:32:19;;;;;;;30.02;13.27;;;8.50;99.90;;;;;;5113199;28;20130;-85
2023/04/17 06:34:45;;;;;;;32.20;13.90;;;8.50;99.90;;;;;;5095947;28;20042;-86
2023/04/17 06:37:11;;;;;;;29.17;12.67;;;8.60;99.90;;;;;;5096077;28;20046;-86
2023/04/17 06:39:36;;;;;;;26.73;12.07;;;8.60;99.90;;;;;;5079641;28;20273;-86
2023/04/17 06:42:02;;;;;;;29.88;13.27;;;8.70;99.90;;;;;;5097368;28;20039;-86
2023/04/17 06:44:28;;;;;;;29.80;13.43;;;8.80;99.90;;;;;;5097018;28;20584;-85
2023/04/17 06:46:53;;;;;;;29.73;12.52;;;8.80;99.90;;;;;;5080141;28;20373;-87
2023/04/17 06:49:19;;;;;;;27.33;13.15;;;8.90;99.90;;;;;;5113424;28;20036;-87
2023/04/17 06:51:46;;;;;;;27.15;13.30;;;9.00;99.90;;;;;;5113241;28;20059;-87
2023/04/17 06:54:12;;;;;;;;;;;9.00;99.90;;;;;;5095315;28;20078;-87
2023/04/17 06:56:38;;;;;;;25.95;11.88;;;9.10;99.90;;;;;;5112203;28;20340;-87
2023/04/17 06:59:03;;;;;;;25.42;12.02;;;9.10;99.90;;;;;;5109359;28;20116;-87
2023/04/17 07:01:30;;;;;;;26.50;12.55;;;9.20;99.90;;;;;;5094853;28;20122;-87
2023/04/17 07:03:56;;;;;;;25.00;12.38;;;9.40;99.90;;;;;;5095410;28;20066;-87
2023/04/17 07:06:25;;;;;;;24.70;12.50;;;9.50;99.90;;;;;;5111739;28;20039;-87
2023/04/17 07:08:51;;;;;;;26.50;12.35;;;9.60;99.90;;;;;;5094643;28;20031;-87
2023/04/17 07:11:17;;;;;;;22.88;13.27;;;9.60;99.90;;;;;;5111850;28;20042;-87
2023/04/17 07:13:43;;;;;;;19.80;11.48;;;9.60;99.90;;;;;;5112287;28;20028;-87
2023/04/17 07:16:08;;;;;;;23.60;12.15;;;9.70;99.90;;;;;;5112238;28;20046;-87
2023/04/17 07:18:34;;;;;;;22.15;12.30;;;9.70;99.90;;;;;;5111859;28;20365;-87
2023/04/17 07:21:00;;;;;;;23.25;12.43;;;9.80;99.90;;;;;;5111759;28;20040;-87
2023/04/17 07:23:26;;;;;;;21.88;12.35;;;9.90;99.90;;;;;;5095022;28;20050;-87
2023/04/17 07:25:52;;;;;;;22.75;11.95;;;10.00;99.90;;;;;;5111731;28;20044;-87
2023/04/17 07:28:18;;;;;;;21.70;12.18;;;10.20;99.90;;;;;;5111450;28;20079;-87
2023/04/17 07:30:44;;;;;;;27.77;13.43;;;10.30;99.90;;;;;;5094556;28;20070;-87
2023/04/17 07:33:09;;;;;;;21.50;12.35;;;10.40;99.90;;;;;;5111577;28;20035;-87
2023/04/17 07:35:35;;;;;;;21.00;11.73;;;10.40;99.90;;;;;;5076166;28;20070;-87
2023/04/17 07:38:02;;;;;;;22.33;12.48;;;10.60;99.90;;;;;;5094201;28;20067;-87
2023/04/17 07:40:29;;;;;;;23.02;12.68;;;10.70;99.90;;;;;;5091884;28;20410;-87
2023/04/17 07:42:55;;;;;;;23.63;12.73;;;10.80;99.90;;;;;;5110245;28;20126;-88
2023/04/17 07:45:21;;;;;;;;;;;11.00;99.90;;;;;;5111158;28;20051;-87
2023/04/17 07:47:47;;;;;;;23.33;12.68;;;11.00;99.90;;;;;;5110991;28;19923;-88
2023/04/17 07:50:13;;;;;;;22.75;12.27;;;11.10;99.90;;;;;;5111393;28;20036;-88
2023/04/17 07:52:38;;;;;;;20.58;11.65;;;11.30;99.90;;;;;;5093687;28;20100;-88
2023/04/17 07:55:05;;;;;;;20.55;11.60;;;11.50;99.90;;;;;;5108721;28;20039;-88
2023/04/17 07:57:31;;;;;;;17.13;10.45;;;11.90;99.90;;;;;;5094241;28;20475;-88
2023/04/17 07:59:57;;;;;;;20.23;12.10;;;12.40;99.90;;;;;;5094309;28;20066;-88
2023/04/17 08:02:23;;;;;;;17.42;10.63;;;12.60;99.90;;;;;;5076619;28;20039;-89
2023/04/17 08:04:50;;;;;;;19.23;11.27;;;12.70;99.90;;;;;;5094529;28;20455;-88
2023/04/17 08:07:17;;;;;;;18.02;11.07;;;12.70;99.90;;;;;;5110715;28;20039;-88
2023/04/17 08:09:43;;;;;;;16.98;10.90;;;12.80;99.90;;;;;;5110869;28;20078;-88
2023/04/17 08:12:09;;;;;;;17.48;10.45;;;12.70;99.90;;;;;;5094210;28;20375;-88
2023/04/17 08:14:35;;;;;;;16.70;10.82;;;12.70;99.90;;;;;;5077167;28;20038;-88
2023/04/17 08:17:01;;;;;;;16.30;10.95;;;12.80;99.90;;;;;;5111422;28;20047;-88
2023/04/17 08:19:28;;;;;;;16.17;10.32;;;13.00;99.90;;;;;;5094327;28;20067;-88
2023/04/17 08:22:01;;;;;;;18.38;10.32;;;13.20;99.90;;;;;;5094478;28;20516;-86
2023/04/17 08:24:27;;;;;;;15.07;10.02;;;13.40;99.90;;;;;;5111043;28;20067;-87
2023/04/17 08:26:52;;;;;;;16.20;10.57;;;13.60;99.90;;;;;;5110755;28;20051;-87
2023/04/17 08:29:18;;;;;;;17.10;10.60;;;13.70;99.90;;;;;;5093536;28;20032;-86
2023/04/17 08:31:44;;;;;;;15.68;10.85;;;13.90;99.90;;;;;;5093522;28;20063;-86
2023/04/17 08:34:10;;;;;;;15.63;9.93;;;14.00;99.90;;;;;;5089936;28;20116;-87
2023/04/17 08:36:35;;;;;;;13.90;8.93;;;14.20;99.90;;;;;;5093714;28;20480;-87
2023/04/17 08:39:01;;;;;;;14.73;9.90;;;14.30;99.90;;;;;;5077010;28;20031;-87
2023/04/17 08:41:36;;;;;;;12.77;9.48;;;14.50;99.90;;;;;;5076258;28;20023;-88
2023/04/17 08:44:02;;;;;;;15.10;9.55;;;14.60;99.90;;;;;;5110554;28;20046;-87
2023/04/17 08:46:33;;;;;;;14.13;9.55;;;14.60;99.90;;;;;;5110618;28;20031;-87
2023/04/17 08:49:01;;;;;;;16.23;10.90;;;14.60;99.90;;;;;;5076031;28;20035;-87
2023/04/17 08:51:27;;;;;;;18.15;10.13;;;14.30;99.90;;;;;;5109961;28;20511;-87
2023/04/17 08:53:53;;;;;;;16.17;10.10;;;14.20;99.90;;;;;;5112842;28;20994;-88
2023/04/17 08:56:21;;;;;;;18.95;10.50;;;14.20;99.90;;;;;;5096955;28;20035;-87
2023/04/17 08:58:47;;;;;;;16.20;10.90;;;14.20;99.90;;;;;;5081144;28;20043;-87
2023/04/17 09:01:19;;;;;;;16.92;11.07;;;14.10;99.90;;;;;;5114357;28;20556;-87
2023/04/17 09:03:47;;;;;;;16.80;10.07;;;14.00;99.90;;;;;;5114446;28;20044;-87
2023/04/17 09:06:14;;;;;;;14.02;9.60;;;14.10;99.90;;;;;;5097652;28;20580;-88
2023/04/17 09:09:00;;;;;;;14.23;10.05;;;14.30;99.90;;;;;;5114937;28;20038;-87
2023/04/17 09:11:26;;;;;;;15.25;10.45;;;14.50;99.90;;;;;;5097380;28;20469;-88
2023/04/17 09:13:53;;;;;;;15.38;9.88;;;14.50;99.90;;;;;;5097488;28;20103;-87
2023/04/17 09:16:19;;;;;;;15.02;9.95;;;14.60;99.90;;;;;;5097317;28;20043;-87
2023/04/17 09:18:45;;;;;;;16.00;10.68;;;14.90;99.90;;;;;;5097578;28;20036;-87
2023/04/17 09:21:12;;;;;;;14.38;10.13;;;14.80;99.90;;;;;;5114561;28;20467;-88
2023/04/17 09:23:53;;;;;;;16.50;10.65;;;15.10;99.90;;;;;;5097744;28;20383;-87
2023/04/17 09:26:20;;;;;;;13.70;9.90;;;15.10;99.90;;;;;;5080455;28;20376;-87
2023/04/17 09:29:18;;;;;;;13.45;9.50;;;15.40;99.90;;;;;;5114342;28;20500;-87
2023/04/17 09:31:45;;;;;;;14.30;9.43;;;15.40;99.90;;;;;;5058301;28;20047;-88
2023/04/17 09:34:12;;;;;;;14.23;8.95;;;15.60;99.90;;;;;;5096888;28;20043;-87
2023/04/17 09:36:42;;;;;;;13.30;9.80;;;15.60;99.90;;;;;;5097267;28;20480;-87
2023/04/17 09:39:19;;;;;;;15.32;9.10;;;15.70;99.90;;;;;;5097209;28;20122;-87
2023/04/17 09:41:45;;;;;;;15.63;9.85;;;15.80;99.90;;;;;;5096992;28;20084;-87
2023/04/17 09:44:22;;;;;;;16.90;10.02;;;15.90;99.90;;;;;;5096549;28;20040;-87
2023/04/17 09:46:49;;;;;;;12.93;8.77;;;16.00;99.90;;;;;;5112844;28;20039;-87
2023/04/17 09:49:33;;;;;;;;;;;16.10;99.90;;;;;;5096798;28;20040;-88
2023/04/17 09:51:59;;;;;;;14.80;8.57;;;16.30;99.90;;;;;;5113029;28;19973;-87
2023/04/17 09:54:30;;;;;;;12.52;8.65;;;16.20;99.90;;;;;;5113020;28;20040;-87
2023/04/17 09:56:57;;;;;;;12.60;8.75;;;16.30;99.90;;;;;;5113428;28;20035;-87
2023/04/17 09:59:24;;;;;;;15.38;8.68;;;16.40;99.90;;;;;;5112981;28;20043;-87
2023/04/17 10:01:52;;;;;;;10.70;8.07;;;16.60;99.90;;;;;;5096492;28;20147;-87
2023/04/17 10:04:18;;;;;;;11.75;8.63;;;17.00;99.90;;;;;;5079306;28;20103;-87
2023/04/17 10:06:45;;;;;;;12.52;9.27;;;17.00;99.90;;;;;;5112784;28;20075;-87
2023/04/17 10:09:10;;;;;;;;;;;17.00;99.90;;;;;;5096648;28;20487;-87
2023/04/17 10:11:45;;;;;;;14.50;8.65;;;17.10;99.90;;;;;;5096004;28;19919;-87
2023/04/17 10:14:30;;;;;;;12.95;8.48;;;17.50;99.90;;;;;;5112881;28;20169;-86
2023/04/17 10:16:55;;;;;;;12.43;9.48;;;17.90;99.90;;;;;;5112998;28;20039;-87
2023/04/17 10:19:29;;;;;;;13.73;9.90;;;17.80;99.90;;;;;;5095884;28;20035;-87
2023/04/17 10:22:14;;;;;;;12.40;9.05;;;18.00;99.90;;;;;;5112709;28;20067;-86
2023/04/17 10:24:41;;;;;;;12.38;9.02;;;18.30;99.90;;;;;;5094714;28;20136;-86
2023/04/17 10:27:27;;;;;;;12.27;8.82;;;18.30;99.90;;;;;;5079106;28;20074;-87
2023/04/17 10:30:01;;;;;;;13.93;9.75;;;18.30;99.90;;;;;;5095725;28;20077;-87
2023/04/17 10:32:32;;;;;;;14.00;9.02;;;18.40;99.90;;;;;;5095984;28;20035;-87
2023/04/17 10:35:00;;;;;;;13.05;9.40;;;18.50;99.90;;;;;;5062835;28;20074;-86
2023/04/17 10:37:51;;;;;;;15.93;10.48;;;18.30;99.90;;;;;;5077140;28;20624;-87
2023/04/17 10:40:19;;;;;;;14.65;9.68;;;18.40;99.90;;;;;;5095465;28;20039;-86
2023/04/17 10:43:27;;;;;;;15.07;10.27;;;18.50;99.90;;;;;;5095386;28;20041;-87
2023/04/17 10:45:54;;;;;;;14.30;9.90;;;18.50;99.90;;;;;;5088006;28;20048;-86
2023/04/17 10:48:31;;;;;;;14.65;9.60;;;18.70;99.90;;;;;;5111941;28;20043;-87
2023/04/17 10:50:58;;;;;;;15.07;9.75;;;18.70;99.90;;;;;;5112086;28;20032;-87
2023/04/17 10:53:40;;;;;;;14.75;10.30;;;18.90;99.90;;;;;;5094188;28;20054;-86
2023/04/17 10:56:07;;;;;;;12.90;9.77;;;19.00;99.90;;;;;;5112243;28;20039;-86
2023/04/17 10:58:37;;;;;;;14.48;10.57;;;19.50;99.90;;;;;;5078019;28;20087;-86
2023/04/17 11:01:08;;;;;;;16.15;10.20;;;19.30;99.90;;;;;;5094870;28;20055;-87
2023/04/17 11:03:38;;;;;;;14.75;10.32;;;18.80;99.90;;;;;;5094927;28;20039;-86
2023/04/17 11:06:05;;;;;;;16.85;10.32;;;18.90;99.90;;;;;;5094570;28;20040;-86
2023/04/17 11:08:31;;;;;;;14.88;10.18;;;18.90;99.90;;;;;;5094642;28;20039;-86
2023/04/17 11:10:56;;;;;;;14.57;10.40;;;19.20;99.90;;;;;;5078223;28;20377;-87
2023/04/17 11:13:22;;;;;;;15.95;9.88;;;19.70;99.90;;;;;;5111715;28;20046;-87
2023/04/17 11:15:49;;;;;;;14.68;10.40;;;19.80;99.90;;;;;;5111983;28;20032;-87
2023/04/17 11:18:15;;;;;;;16.23;11.15;;;19.20;99.90;;;;;;5093131;28;20091;-86
2023/04/17 11:20:41;;;;;;;15.05;10.73;;;19.50;99.90;;;;;;5077132;28;20043;-86
2023/04/17 11:23:07;;;;;;;16.27;10.75;;;20.00;99.90;;;;;;5077852;28;20050;-86
2023/04/17 11:25:33;;;;;;;13.15;10.35;;;20.20;99.90;;;;;;5094313;28;20046;-86
2023/04/17 11:28:00;;;;;;;;;;;20.30;99.90;;;;;;5095140;28;20110;-86
2023/04/17 11:30:33;;;;;;;15.45;10.40;;;20.10;99.90;;;;;;5111012;28;19970;-85
2023/04/17 11:33:06;;;;;;;14.13;10.55;;;20.00;99.90;;;;;;5111403;28;20032;-86
2023/04/17 11:35:34;;;;;;;16.33;10.15;;;20.50;99.90;;;;;;5092548;28;20126;-85
2023/04/17 11:38:10;;;;;;;18.10;10.48;;;21.00;99.90;;;;;;5077711;28;20377;-85
2023/04/17 11:40:41;;;;;;;16.38;10.20;;;21.00;99.90;;;;;;5093977;28;20043;-85
2023/04/17 11:43:07;;;;;;;17.05;10.45;;;20.90;99.90;;;;;;5111375;28;20049;-85
2023/04/17 11:45:35;;;;;;;13.73;9.80;;;21.00;99.90;;;;;;5093975;28;20085;-85
2023/04/17 11:48:02;;;;;;;13.40;9.95;;;21.00;99.90;;;;;;5094560;28;20063;-85
2023/04/17 11:50:31;;;;;;;16.80;10.32;;;21.40;99.90;;;;;;5095120;28;20036;-85
2023/04/17 11:53:01;;;;;;;13.60;10.15;;;20.40;99.90;;;;;;5110531;28;20505;-85
2023/04/17 11:55:30;;;;;;;13.50;10.18;;;20.40;99.90;;;;;;5093510;28;20050;-84
2023/04/17 11:58:01;;;;;;;12.27;9.35;;;20.50;99.90;;;;;;5093663;28;20383;-85
2023/04/17 12:00:30;;;;;;;13.80;11.15;;;20.40;99.90;;;;;;5093450;28;20055;-85
2023/04/17 12:02:57;;;;;;;18.48;9.52;;;19.70;99.90;;;;;;5077405;28;20071;-85
2023/04/17 12:05:25;;;;;;;12.98;9.38;;;20.40;99.90;;;;;;5093721;28;20035;-85
2023/04/17 12:08:06;;;;;;;14.13;10.48;;;20.30;99.80;;;;;;5110523;28;20043;-85
2023/04/17 12:10:39;;;;;;;14.02;9.95;;;19.80;99.90;;;;;;5093312;28;20035;-85
2023/04/17 12:13:05;;;;;;;15.07;9.20;;;19.80;99.90;;;;;;5093368;28;20047;-85
2023/04/17 12:15:31;;;;;;;12.40;9.27;;;20.10;99.90;;;;;;5093185;28;20042;-85
2023/04/17 12:17:57;;;;;;;;;;;20.40;99.90;;;;;;5093853;28;20051;-84
2023/04/17 12:20:23;;;;;;;10.50;8.45;;;20.50;99.70;;;;;;5093203;28;20336;-85
2023/04/17 12:22:48;;;;;;;;;;;20.80;99.90;;;;;;5059239;28;20035;-85
2023/04/17 12:25:14;;;;;;;15.27;9.93;;;20.80;99.40;;;;;;5074250;28;19971;-84
2023/04/17 12:27:40;;;;;;;13.23;9.60;;;20.60;99.90;;;;;;5077144;28;20042;-84
2023/04/17 12:30:06;;;;;;;14.38;9.82;;;20.60;99.80;;;;;;5094592;28;20130;-85
2023/04/17 12:32:32;;;;;;;13.45;10.13;;;20.20;98.90;;;;;;5077835;28;20027;-86
2023/04/17 12:34:57;;;;;;;;;;;20.50;99.90;;;;;;5078431;28;20127;-85
2023/04/17 12:37:24;;;;;;;14.00;9.20;;;21.00;99.90;;;;;;5111332;28;19931;-85
2023/04/17 12:39:50;;;;;;;15.63;10.23;;;21.20;99.60;;;;;;5060588;28;20135;-85